KNLC/NLC METAR and TAF weather

Enter ICAO airport designator
Station Type Date Time Source
KNLC METAR 2019/11/15 04:56 UTC NOAA

KNLC 150456Z 31004KT 10SM FEW150 SCT240 12/07 A3013 RMK AO2 SLP202 RH/68 T01220067


Station Type Date Time Source
KNLC Decoded METAR 2019/11/15 04:56 UTC NOAA

LEMOORE NAVAL AIR STATION, CA, United States (KNLC) 36-20N 119-57W 72M
Nov 14, 2019 - 11:56 PM EST / 2019.11.15 0456 UTC
Wind: from the NW (310 degrees) at 5 MPH (4 KT):0
Visibility: 10 mile(s):0
Sky conditions: partly cloudy
Temperature: 54.0 F (12.2 C)
Dew Point: 44.1 F (6.7 C)
Relative Humidity: 69%
Pressure (altimeter): 30.13 in. Hg (1020 hPa)
ob: KNLC 150456Z 31004KT 10SM FEW150 SCT240 12/07 A3013 RMK AO2 SLP202 RH/68 T01220067
cycle: 5

Station Type Date Time Source
KNLC TAF 2019/11/14 23:09 UTC NOAA

TAF TAF KNLC 1423/1523 34007KT 6000 HZ SCT160 BKN260 QNH2997INS
TEMPO 1423/1503 VRB06KT 9999 FEW080 BKN140 OVC240
FM150300 34008KT 8000 HZ FEW080 BKN130 BKN250 QNH2991INS
FM151900 34007KT 4800 BR SCT080 OVC130 QNH2987INS
TEMPO 1519/1523 2400 BR FEW090 SCT120 T06/1513Z T19/1623Z FS30067

Example: see airport list